Weather at Senipah Heliport

Public forecast

Using degrees Celsius for public forecast. Weather courtesy of forecast.io.

Closest aviation weather report (METAR) to Senipah Heliport

Closest report is Sultan Aji Muhammad Sulaiman Sepinggan International Airport, 23.2 nm (43.0 km) SW.

2024/06/18 12:00 (retrieved 38 minutes ago)

WALL 181200Z 00000KT 9999 FEW020 27/26 Q1009 NOSIG

Closest aviation forecast (TAF) to Senipah Heliport

Closest forecast is Aji Pangeran Tumenggung Pranoto International Airport, 36.6 nm (67.8 km) N.

2024/06/18 12:00 (retrieved 38 minutes ago)

TAF WALL 181100Z 1812/1918 29003KT 9999 SCT020 TAF WALS 181100Z 1812/1824 11003KT 9999 FEW015